sensor_id;sensor_type;location;lat;lon;timestamp;P1;durP1;ratioP1;P2;durP2;ratioP2
56037;SDS011;41907;47.848;9.000;2023-01-19T00:00:08;8.70;;;5.40;;
56037;SDS011;41907;47.848;9.000;2023-01-19T00:02:35;9.48;;;5.28;;
56037;SDS011;41907;47.848;9.000;2023-01-19T00:05:01;10.07;;;5.30;;
56037;SDS011;41907;47.848;9.000;2023-01-19T00:07:28;6.82;;;4.72;;
56037;SDS011;41907;47.848;9.000;2023-01-19T00:09:54;7.57;;;4.40;;
56037;SDS011;41907;47.848;9.000;2023-01-19T00:12:20;7.13;;;4.15;;
56037;SDS011;41907;47.848;9.000;2023-01-19T00:14:45;7.80;;;4.22;;
56037;SDS011;41907;47.848;9.000;2023-01-19T00:17:10;7.68;;;4.43;;
56037;SDS011;41907;47.848;9.000;2023-01-19T00:19:35;8.45;;;4.43;;
56037;SDS011;41907;47.848;9.000;2023-01-19T00:22:01;5.53;;;3.75;;
56037;SDS011;41907;47.848;9.000;2023-01-19T00:24:26;6.45;;;4.38;;
56037;SDS011;41907;47.848;9.000;2023-01-19T00:26:51;6.63;;;4.20;;
56037;SDS011;41907;47.848;9.000;2023-01-19T00:29:17;9.00;;;4.82;;
56037;SDS011;41907;47.848;9.000;2023-01-19T00:31:42;6.97;;;4.07;;
56037;SDS011;41907;47.848;9.000;2023-01-19T00:34:08;5.55;;;3.63;;
56037;SDS011;41907;47.848;9.000;2023-01-19T00:36:33;10.13;;;4.82;;
56037;SDS011;41907;47.848;9.000;2023-01-19T00:38:59;8.82;;;4.60;;
56037;SDS011;41907;47.848;9.000;2023-01-19T00:41:25;9.55;;;5.70;;
56037;SDS011;41907;47.848;9.000;2023-01-19T00:44:10;9.05;;;4.88;;
56037;SDS011;41907;47.848;9.000;2023-01-19T00:46:36;12.60;;;5.07;;
56037;SDS011;41907;47.848;9.000;2023-01-19T00:49:02;9.85;;;5.30;;
56037;SDS011;41907;47.848;9.000;2023-01-19T00:51:28;9.07;;;4.70;;
56037;SDS011;41907;47.848;9.000;2023-01-19T00:53:53;12.43;;;4.85;;
56037;SDS011;41907;47.848;9.000;2023-01-19T00:56:18;8.07;;;4.88;;
56037;SDS011;41907;47.848;9.000;2023-01-19T00:58:44;9.93;;;4.90;;
56037;SDS011;41907;47.848;9.000;2023-01-19T01:01:10;10.23;;;4.60;;
56037;SDS011;41907;47.848;9.000;2023-01-19T01:03:35;9.38;;;4.55;;
56037;SDS011;41907;47.848;9.000;2023-01-19T01:06:01;7.68;;;4.43;;
56037;SDS011;41907;47.848;9.000;2023-01-19T01:08:27;8.30;;;4.05;;
56037;SDS011;41907;47.848;9.000;2023-01-19T01:10:53;7.45;;;4.90;;
56037;SDS011;41907;47.848;9.000;2023-01-19T01:13:19;8.27;;;4.75;;
56037;SDS011;41907;47.848;9.000;2023-01-19T01:15:47;10.70;;;5.68;;
56037;SDS011;41907;47.848;9.000;2023-01-19T01:18:14;9.65;;;5.53;;
56037;SDS011;41907;47.848;9.000;2023-01-19T01:20:40;9.68;;;5.07;;
56037;SDS011;41907;47.848;9.000;2023-01-19T01:23:05;10.02;;;5.60;;
56037;SDS011;41907;47.848;9.000;2023-01-19T01:25:31;7.05;;;4.80;;
56037;SDS011;41907;47.848;9.000;2023-01-19T01:28:01;11.25;;;6.13;;
56037;SDS011;41907;47.848;9.000;2023-01-19T01:30:27;10.90;;;5.28;;
56037;SDS011;41907;47.848;9.000;2023-01-19T01:32:52;11.23;;;6.50;;
56037;SDS011;41907;47.848;9.000;2023-01-19T01:35:17;12.18;;;6.30;;
56037;SDS011;41907;47.848;9.000;2023-01-19T01:37:43;13.20;;;5.95;;
56037;SDS011;41907;47.848;9.000;2023-01-19T01:40:12;11.40;;;7.18;;
56037;SDS011;41907;47.848;9.000;2023-01-19T01:42:39;11.75;;;6.05;;
56037;SDS011;41907;47.848;9.000;2023-01-19T01:45:06;12.65;;;5.70;;
56037;SDS011;41907;47.848;9.000;2023-01-19T01:50:34;10.98;;;6.53;;
56037;SDS011;41907;47.848;9.000;2023-01-19T01:53:24;12.88;;;6.15;;
56037;SDS011;41907;47.848;9.000;2023-01-19T01:55:51;17.27;;;6.82;;
56037;SDS011;41907;47.848;9.000;2023-01-19T01:58:17;13.07;;;6.65;;
56037;SDS011;41907;47.848;9.000;2023-01-19T02:00:42;10.70;;;6.65;;
56037;SDS011;41907;47.848;9.000;2023-01-19T02:03:26;11.35;;;6.00;;
56037;SDS011;41907;47.848;9.000;2023-01-19T02:05:56;7.45;;;5.80;;
56037;SDS011;41907;47.848;9.000;2023-01-19T02:11:17;12.45;;;6.15;;
56037;SDS011;41907;47.848;9.000;2023-01-19T02:14:03;11.40;;;6.18;;
56037;SDS011;41907;47.848;9.000;2023-01-19T02:16:29;14.07;;;6.13;;
56037;SDS011;41907;47.848;9.000;2023-01-19T02:18:54;9.60;;;5.65;;
56037;SDS011;41907;47.848;9.000;2023-01-19T02:21:21;7.78;;;4.78;;
56037;SDS011;41907;47.848;9.000;2023-01-19T02:23:57;11.32;;;4.80;;
56037;SDS011;41907;47.848;9.000;2023-01-19T02:26:25;9.65;;;6.50;;
56037;SDS011;41907;47.848;9.000;2023-01-19T02:29:01;9.25;;;6.07;;
56037;SDS011;41907;47.848;9.000;2023-01-19T02:31:29;10.00;;;5.88;;
56037;SDS011;41907;47.848;9.000;2023-01-19T02:33:56;11.75;;;6.10;;
56037;SDS011;41907;47.848;9.000;2023-01-19T02:36:24;10.40;;;6.03;;
56037;SDS011;41907;47.848;9.000;2023-01-19T02:38:54;8.73;;;5.70;;
56037;SDS011;41907;47.848;9.000;2023-01-19T02:41:25;10.38;;;6.00;;
56037;SDS011;41907;47.848;9.000;2023-01-19T02:43:55;10.18;;;5.32;;
56037;SDS011;41907;47.848;9.000;2023-01-19T02:46:23;9.80;;;5.57;;
56037;SDS011;41907;47.848;9.000;2023-01-19T02:48:49;9.15;;;6.10;;
56037;SDS011;41907;47.848;9.000;2023-01-19T02:51:16;12.20;;;5.72;;
56037;SDS011;41907;47.848;9.000;2023-01-19T02:56:38;12.07;;;6.63;;
56037;SDS011;41907;47.848;9.000;2023-01-19T03:02:34;10.05;;;6.35;;
56037;SDS011;41907;47.848;9.000;2023-01-19T03:08:06;11.73;;;6.57;;
56037;SDS011;41907;47.848;9.000;2023-01-19T03:15:52;13.20;;;7.78;;
56037;SDS011;41907;47.848;9.000;2023-01-19T03:18:23;13.15;;;7.25;;
56037;SDS011;41907;47.848;9.000;2023-01-19T03:20:51;12.80;;;7.50;;
56037;SDS011;41907;47.848;9.000;2023-01-19T03:23:19;12.50;;;7.63;;
56037;SDS011;41907;47.848;9.000;2023-01-19T03:25:48;12.35;;;6.78;;
56037;SDS011;41907;47.848;9.000;2023-01-19T03:28:17;14.13;;;6.93;;
56037;SDS011;41907;47.848;9.000;2023-01-19T03:30:46;14.35;;;7.80;;
56037;SDS011;41907;47.848;9.000;2023-01-19T03:33:36;16.33;;;7.75;;
56037;SDS011;41907;47.848;9.000;2023-01-19T03:36:07;13.98;;;7.57;;
56037;SDS011;41907;47.848;9.000;2023-01-19T03:38:38;11.23;;;6.93;;
56037;SDS011;41907;47.848;9.000;2023-01-19T03:41:08;13.55;;;7.75;;
56037;SDS011;41907;47.848;9.000;2023-01-19T03:43:37;12.73;;;7.00;;
56037;SDS011;41907;47.848;9.000;2023-01-19T03:46:03;12.45;;;7.47;;
56037;SDS011;41907;47.848;9.000;2023-01-19T03:48:30;13.43;;;7.15;;
56037;SDS011;41907;47.848;9.000;2023-01-19T03:50:56;13.65;;;7.65;;
56037;SDS011;41907;47.848;9.000;2023-01-19T03:53:22;14.57;;;7.95;;
56037;SDS011;41907;47.848;9.000;2023-01-19T03:55:49;14.68;;;8.45;;
56037;SDS011;41907;47.848;9.000;2023-01-19T03:58:15;11.93;;;7.53;;
56037;SDS011;41907;47.848;9.000;2023-01-19T04:00:41;14.18;;;7.13;;
56037;SDS011;41907;47.848;9.000;2023-01-19T04:03:09;14.65;;;7.15;;
56037;SDS011;41907;47.848;9.000;2023-01-19T04:05:37;13.75;;;8.57;;
56037;SDS011;41907;47.848;9.000;2023-01-19T04:08:03;11.07;;;6.60;;
56037;SDS011;41907;47.848;9.000;2023-01-19T04:10:29;11.30;;;6.63;;
56037;SDS011;41907;47.848;9.000;2023-01-19T04:12:58;12.68;;;7.45;;
56037;SDS011;41907;47.848;9.000;2023-01-19T04:15:24;11.98;;;7.45;;
56037;SDS011;41907;47.848;9.000;2023-01-19T04:17:50;13.30;;;7.55;;
56037;SDS011;41907;47.848;9.000;2023-01-19T04:20:16;13.10;;;7.10;;
56037;SDS011;41907;47.848;9.000;2023-01-19T04:22:42;10.15;;;6.35;;
56037;SDS011;41907;47.848;9.000;2023-01-19T04:25:07;10.80;;;7.03;;
56037;SDS011;41907;47.848;9.000;2023-01-19T04:27:34;13.90;;;8.82;;
56037;SDS011;41907;47.848;9.000;2023-01-19T04:30:00;15.45;;;8.00;;
56037;SDS011;41907;47.848;9.000;2023-01-19T04:32:27;13.73;;;7.32;;
56037;SDS011;41907;47.848;9.000;2023-01-19T04:34:53;11.38;;;6.28;;
56037;SDS011;41907;47.848;9.000;2023-01-19T04:37:18;12.70;;;6.93;;
56037;SDS011;41907;47.848;9.000;2023-01-19T04:39:44;15.25;;;8.32;;
56037;SDS011;41907;47.848;9.000;2023-01-19T04:42:09;14.38;;;7.47;;
56037;SDS011;41907;47.848;9.000;2023-01-19T04:44:34;13.93;;;8.10;;
56037;SDS011;41907;47.848;9.000;2023-01-19T04:47:00;13.68;;;7.60;;
56037;SDS011;41907;47.848;9.000;2023-01-19T04:49:26;12.80;;;6.60;;
56037;SDS011;41907;47.848;9.000;2023-01-19T04:51:52;14.23;;;7.65;;
56037;SDS011;41907;47.848;9.000;2023-01-19T04:54:18;15.07;;;7.30;;
56037;SDS011;41907;47.848;9.000;2023-01-19T04:56:43;15.13;;;7.63;;
56037;SDS011;41907;47.848;9.000;2023-01-19T04:59:09;14.35;;;8.18;;
56037;SDS011;41907;47.848;9.000;2023-01-19T05:01:34;12.27;;;7.07;;
56037;SDS011;41907;47.848;9.000;2023-01-19T05:03:59;13.15;;;7.70;;
56037;SDS011;41907;47.848;9.000;2023-01-19T05:06:27;17.67;;;8.52;;
56037;SDS011;41907;47.848;9.000;2023-01-19T05:08:53;17.17;;;7.60;;
56037;SDS011;41907;47.848;9.000;2023-01-19T05:11:18;12.85;;;7.22;;
56037;SDS011;41907;47.848;9.000;2023-01-19T05:13:43;15.98;;;7.50;;
56037;SDS011;41907;47.848;9.000;2023-01-19T05:16:09;12.10;;;6.75;;
56037;SDS011;41907;47.848;9.000;2023-01-19T05:18:34;15.30;;;7.35;;
56037;SDS011;41907;47.848;9.000;2023-01-19T05:21:01;15.18;;;7.38;;
56037;SDS011;41907;47.848;9.000;2023-01-19T05:23:27;15.77;;;9.35;;
56037;SDS011;41907;47.848;9.000;2023-01-19T05:25:55;14.70;;;8.00;;
56037;SDS011;41907;47.848;9.000;2023-01-19T05:28:20;15.40;;;8.63;;
56037;SDS011;41907;47.848;9.000;2023-01-19T05:30:47;13.95;;;8.20;;
56037;SDS011;41907;47.848;9.000;2023-01-19T05:33:13;12.57;;;8.18;;
56037;SDS011;41907;47.848;9.000;2023-01-19T05:35:39;13.68;;;7.22;;
56037;SDS011;41907;47.848;9.000;2023-01-19T05:38:04;12.75;;;6.72;;
56037;SDS011;41907;47.848;9.000;2023-01-19T05:40:29;12.68;;;7.18;;
56037;SDS011;41907;47.848;9.000;2023-01-19T05:42:55;14.82;;;6.82;;
56037;SDS011;41907;47.848;9.000;2023-01-19T05:45:24;13.82;;;7.20;;
56037;SDS011;41907;47.848;9.000;2023-01-19T05:47:51;14.13;;;7.25;;
56037;SDS011;41907;47.848;9.000;2023-01-19T05:50:18;15.75;;;8.20;;
56037;SDS011;41907;47.848;9.000;2023-01-19T05:52:44;15.65;;;7.78;;
56037;SDS011;41907;47.848;9.000;2023-01-19T05:55:09;14.50;;;8.68;;
56037;SDS011;41907;47.848;9.000;2023-01-19T05:57:35;14.85;;;8.57;;
56037;SDS011;41907;47.848;9.000;2023-01-19T06:00:01;13.75;;;7.90;;
56037;SDS011;41907;47.848;9.000;2023-01-19T06:02:27;13.90;;;7.95;;
56037;SDS011;41907;47.848;9.000;2023-01-19T06:04:54;11.23;;;6.78;;
56037;SDS011;41907;47.848;9.000;2023-01-19T06:07:19;15.57;;;8.45;;
56037;SDS011;41907;47.848;9.000;2023-01-19T06:09:45;14.52;;;7.95;;
56037;SDS011;41907;47.848;9.000;2023-01-19T06:12:11;16.55;;;8.88;;
56037;SDS011;41907;47.848;9.000;2023-01-19T06:14:36;16.35;;;7.28;;
56037;SDS011;41907;47.848;9.000;2023-01-19T06:17:02;15.07;;;8.55;;
56037;SDS011;41907;47.848;9.000;2023-01-19T06:19:27;15.02;;;8.57;;
56037;SDS011;41907;47.848;9.000;2023-01-19T06:21:53;17.50;;;8.95;;
56037;SDS011;41907;47.848;9.000;2023-01-19T06:24:18;26.13;;;10.60;;
56037;SDS011;41907;47.848;9.000;2023-01-19T06:26:43;22.70;;;9.73;;
56037;SDS011;41907;47.848;9.000;2023-01-19T06:29:09;13.18;;;7.85;;
56037;SDS011;41907;47.848;9.000;2023-01-19T06:31:36;11.68;;;6.25;;
56037;SDS011;41907;47.848;9.000;2023-01-19T06:34:01;18.20;;;7.82;;
56037;SDS011;41907;47.848;9.000;2023-01-19T06:36:27;19.23;;;8.57;;
56037;SDS011;41907;47.848;9.000;2023-01-19T06:38:53;27.10;;;12.07;;
56037;SDS011;41907;47.848;9.000;2023-01-19T06:41:18;26.63;;;12.85;;
56037;SDS011;41907;47.848;9.000;2023-01-19T06:43:43;32.50;;;13.30;;
56037;SDS011;41907;47.848;9.000;2023-01-19T06:46:09;36.95;;;15.35;;
56037;SDS011;41907;47.848;9.000;2023-01-19T06:48:34;29.27;;;12.82;;
56037;SDS011;41907;47.848;9.000;2023-01-19T06:51:00;19.75;;;9.52;;
56037;SDS011;41907;47.848;9.000;2023-01-19T06:53:25;17.48;;;9.60;;
56037;SDS011;41907;47.848;9.000;2023-01-19T06:55:52;16.85;;;9.07;;
56037;SDS011;41907;47.848;9.000;2023-01-19T06:58:17;16.52;;;9.23;;
56037;SDS011;41907;47.848;9.000;2023-01-19T07:00:43;16.75;;;9.20;;
56037;SDS011;41907;47.848;9.000;2023-01-19T07:03:10;17.88;;;9.63;;
56037;SDS011;41907;47.848;9.000;2023-01-19T07:05:43;17.73;;;9.30;;
56037;SDS011;41907;47.848;9.000;2023-01-19T07:08:08;18.02;;;9.23;;
56037;SDS011;41907;47.848;9.000;2023-01-19T07:10:34;23.38;;;10.45;;
56037;SDS011;41907;47.848;9.000;2023-01-19T07:13:00;19.35;;;9.23;;
56037;SDS011;41907;47.848;9.000;2023-01-19T07:15:25;17.92;;;9.73;;
56037;SDS011;41907;47.848;9.000;2023-01-19T07:17:50;17.75;;;10.50;;
56037;SDS011;41907;47.848;9.000;2023-01-19T07:20:16;20.65;;;10.73;;
56037;SDS011;41907;47.848;9.000;2023-01-19T07:22:43;15.68;;;9.32;;
56037;SDS011;41907;47.848;9.000;2023-01-19T07:25:10;17.50;;;10.18;;
56037;SDS011;41907;47.848;9.000;2023-01-19T07:27:37;17.42;;;9.85;;
56037;SDS011;41907;47.848;9.000;2023-01-19T07:30:02;16.02;;;9.02;;
56037;SDS011;41907;47.848;9.000;2023-01-19T07:32:28;21.42;;;10.77;;
56037;SDS011;41907;47.848;9.000;2023-01-19T07:34:54;20.08;;;10.48;;
56037;SDS011;41907;47.848;9.000;2023-01-19T07:37:19;19.20;;;10.07;;
56037;SDS011;41907;47.848;9.000;2023-01-19T07:39:45;16.30;;;10.05;;
56037;SDS011;41907;47.848;9.000;2023-01-19T07:42:11;18.13;;;11.05;;
56037;SDS011;41907;47.848;9.000;2023-01-19T07:44:36;27.48;;;12.25;;
56037;SDS011;41907;47.848;9.000;2023-01-19T07:47:02;36.63;;;14.98;;
56037;SDS011;41907;47.848;9.000;2023-01-19T07:49:27;31.83;;;15.02;;
56037;SDS011;41907;47.848;9.000;2023-01-19T07:51:53;39.20;;;15.77;;
56037;SDS011;41907;47.848;9.000;2023-01-19T07:54:20;28.38;;;13.52;;
56037;SDS011;41907;47.848;9.000;2023-01-19T07:56:46;30.08;;;14.27;;
56037;SDS011;41907;47.848;9.000;2023-01-19T07:59:11;29.48;;;13.38;;
56037;SDS011;41907;47.848;9.000;2023-01-19T08:01:36;25.58;;;11.90;;
56037;SDS011;41907;47.848;9.000;2023-01-19T08:04:02;20.13;;;11.15;;
56037;SDS011;41907;47.848;9.000;2023-01-19T08:06:34;25.10;;;12.13;;
56037;SDS011;41907;47.848;9.000;2023-01-19T08:09:01;23.27;;;11.20;;
56037;SDS011;41907;47.848;9.000;2023-01-19T08:11:29;19.58;;;11.60;;
56037;SDS011;41907;47.848;9.000;2023-01-19T08:13:55;20.63;;;11.48;;
56037;SDS011;41907;47.848;9.000;2023-01-19T08:16:20;25.52;;;13.10;;
56037;SDS011;41907;47.848;9.000;2023-01-19T08:18:46;19.98;;;10.80;;
56037;SDS011;41907;47.848;9.000;2023-01-19T08:21:11;21.27;;;11.90;;
56037;SDS011;41907;47.848;9.000;2023-01-19T08:23:36;23.05;;;12.98;;
56037;SDS011;41907;47.848;9.000;2023-01-19T08:26:16;24.67;;;13.48;;
56037;SDS011;41907;47.848;9.000;2023-01-19T08:28:42;23.42;;;12.52;;
56037;SDS011;41907;47.848;9.000;2023-01-19T08:31:07;19.77;;;12.88;;
56037;SDS011;41907;47.848;9.000;2023-01-19T08:33:33;19.27;;;11.30;;
56037;SDS011;41907;47.848;9.000;2023-01-19T08:35:58;25.50;;;13.35;;
56037;SDS011;41907;47.848;9.000;2023-01-19T08:38:23;31.70;;;15.90;;
56037;SDS011;41907;47.848;9.000;2023-01-19T08:40:49;25.38;;;13.57;;
56037;SDS011;41907;47.848;9.000;2023-01-19T08:43:15;23.65;;;13.25;;
56037;SDS011;41907;47.848;9.000;2023-01-19T08:45:42;23.10;;;13.68;;
56037;SDS011;41907;47.848;9.000;2023-01-19T08:48:12;33.53;;;16.50;;
56037;SDS011;41907;47.848;9.000;2023-01-19T08:50:38;25.10;;;12.30;;
56037;SDS011;41907;47.848;9.000;2023-01-19T08:53:04;13.70;;;8.18;;
56037;SDS011;41907;47.848;9.000;2023-01-19T08:55:32;14.10;;;8.60;;
56037;SDS011;41907;47.848;9.000;2023-01-19T08:57:58;17.17;;;9.20;;
56037;SDS011;41907;47.848;9.000;2023-01-19T09:00:24;23.85;;;13.32;;
56037;SDS011;41907;47.848;9.000;2023-01-19T09:02:51;19.17;;;11.95;;
56037;SDS011;41907;47.848;9.000;2023-01-19T09:05:16;15.93;;;9.80;;
56037;SDS011;41907;47.848;9.000;2023-01-19T09:07:42;15.10;;;7.38;;
56037;SDS011;41907;47.848;9.000;2023-01-19T09:10:09;9.27;;;6.40;;
56037;SDS011;41907;47.848;9.000;2023-01-19T09:12:35;9.48;;;6.10;;
56037;SDS011;41907;47.848;9.000;2023-01-19T09:15:00;11.43;;;8.40;;
56037;SDS011;41907;47.848;9.000;2023-01-19T09:17:26;10.32;;;7.10;;
56037;SDS011;41907;47.848;9.000;2023-01-19T09:19:51;10.10;;;6.35;;
56037;SDS011;41907;47.848;9.000;2023-01-19T09:22:17;9.27;;;6.00;;
56037;SDS011;41907;47.848;9.000;2023-01-19T09:24:42;9.45;;;6.03;;
56037;SDS011;41907;47.848;9.000;2023-01-19T09:27:07;15.40;;;9.77;;
56037;SDS011;41907;47.848;9.000;2023-01-19T09:29:32;16.73;;;11.75;;
56037;SDS011;41907;47.848;9.000;2023-01-19T09:31:58;18.27;;;10.82;;
56037;SDS011;41907;47.848;9.000;2023-01-19T09:34:23;10.68;;;6.93;;
56037;SDS011;41907;47.848;9.000;2023-01-19T09:36:51;14.75;;;8.23;;
56037;SDS011;41907;47.848;9.000;2023-01-19T09:39:17;11.45;;;6.32;;
56037;SDS011;41907;47.848;9.000;2023-01-19T09:41:44;8.65;;;5.90;;
56037;SDS011;41907;47.848;9.000;2023-01-19T09:44:19;10.18;;;5.82;;
56037;SDS011;41907;47.848;9.000;2023-01-19T09:47:00;9.00;;;5.93;;
56037;SDS011;41907;47.848;9.000;2023-01-19T09:49:32;9.88;;;6.10;;
56037;SDS011;41907;47.848;9.000;2023-01-19T09:52:02;9.27;;;5.72;;
56037;SDS011;41907;47.848;9.000;2023-01-19T09:56:53;9.00;;;6.07;;
56037;SDS011;41907;47.848;9.000;2023-01-19T10:06:53;53.55;;;24.17;;
56037;SDS011;41907;47.848;9.000;2023-01-19T10:09:32;28.05;;;15.32;;
56037;SDS011;41907;47.848;9.000;2023-01-19T10:12:11;15.63;;;8.88;;
56037;SDS011;41907;47.848;9.000;2023-01-19T10:14:47;25.73;;;12.35;;
56037;SDS011;41907;47.848;9.000;2023-01-19T10:17:26;13.20;;;8.25;;
56037;SDS011;41907;47.848;9.000;2023-01-19T10:19:56;13.00;;;7.75;;
56037;SDS011;41907;47.848;9.000;2023-01-19T10:22:26;15.80;;;9.13;;
56037;SDS011;41907;47.848;9.000;2023-01-19T10:24:54;17.13;;;9.20;;
56037;SDS011;41907;47.848;9.000;2023-01-19T10:27:23;11.77;;;6.82;;
56037;SDS011;41907;47.848;9.000;2023-01-19T10:29:52;12.95;;;6.25;;
56037;SDS011;41907;47.848;9.000;2023-01-19T10:32:25;12.10;;;7.22;;
56037;SDS011;41907;47.848;9.000;2023-01-19T10:34:59;11.38;;;7.10;;
56037;SDS011;41907;47.848;9.000;2023-01-19T10:39:53;10.60;;;6.38;;
56037;SDS011;41907;47.848;9.000;2023-01-19T10:42:21;9.90;;;6.28;;
56037;SDS011;41907;47.848;9.000;2023-01-19T10:44:46;10.80;;;6.82;;
56037;SDS011;41907;47.848;9.000;2023-01-19T10:47:17;11.52;;;6.30;;
56037;SDS011;41907;47.848;9.000;2023-01-19T10:49:45;11.40;;;7.70;;
56037;SDS011;41907;47.848;9.000;2023-01-19T10:52:32;13.60;;;7.18;;
56037;SDS011;41907;47.848;9.000;2023-01-19T10:54:59;12.70;;;6.88;;
56037;SDS011;41907;47.848;9.000;2023-01-19T10:57:28;11.10;;;6.90;;
56037;SDS011;41907;47.848;9.000;2023-01-19T10:59:56;11.13;;;6.72;;
56037;SDS011;41907;47.848;9.000;2023-01-19T11:02:25;10.30;;;6.32;;
56037;SDS011;41907;47.848;9.000;2023-01-19T11:04:59;14.95;;;9.10;;
56037;SDS011;41907;47.848;9.000;2023-01-19T11:07:45;10.30;;;6.97;;
56037;SDS011;41907;47.848;9.000;2023-01-19T11:12:43;13.05;;;6.75;;
56037;SDS011;41907;47.848;9.000;2023-01-19T11:18:00;11.57;;;7.50;;
56037;SDS011;41907;47.848;9.000;2023-01-19T11:20:29;9.32;;;5.70;;
56037;SDS011;41907;47.848;9.000;2023-01-19T11:25:39;7.93;;;5.32;;
56037;SDS011;41907;47.848;9.000;2023-01-19T11:28:04;10.30;;;5.10;;
56037;SDS011;41907;47.848;9.000;2023-01-19T11:30:37;10.40;;;5.97;;
56037;SDS011;41907;47.848;9.000;2023-01-19T11:33:41;6.97;;;5.20;;
56037;SDS011;41907;47.848;9.000;2023-01-19T11:36:18;17.30;;;9.85;;
56037;SDS011;41907;47.848;9.000;2023-01-19T11:38:47;25.08;;;13.15;;
56037;SDS011;41907;47.848;9.000;2023-01-19T11:41:18;15.32;;;8.02;;
56037;SDS011;41907;47.848;9.000;2023-01-19T11:43:51;71.93;;;32.33;;
56037;SDS011;41907;47.848;9.000;2023-01-19T11:46:19;11.35;;;7.43;;
56037;SDS011;41907;47.848;9.000;2023-01-19T11:51:29;14.80;;;7.00;;
56037;SDS011;41907;47.848;9.000;2023-01-19T11:54:00;11.70;;;5.60;;
56037;SDS011;41907;47.848;9.000;2023-01-19T12:01:23;16.00;;;8.18;;
56037;SDS011;41907;47.848;9.000;2023-01-19T12:03:59;25.00;;;11.75;;
56037;SDS011;41907;47.848;9.000;2023-01-19T12:06:29;7.85;;;4.32;;
56037;SDS011;41907;47.848;9.000;2023-01-19T12:09:06;9.35;;;4.80;;
56037;SDS011;41907;47.848;9.000;2023-01-19T12:11:48;10.63;;;5.65;;
56037;SDS011;41907;47.848;9.000;2023-01-19T12:14:34;8.65;;;5.10;;
56037;SDS011;41907;47.848;9.000;2023-01-19T12:17:12;8.90;;;5.57;;
56037;SDS011;41907;47.848;9.000;2023-01-19T12:19:44;8.60;;;4.78;;
56037;SDS011;41907;47.848;9.000;2023-01-19T12:22:17;8.80;;;5.15;;
56037;SDS011;41907;47.848;9.000;2023-01-19T12:27:22;11.25;;;5.80;;
56037;SDS011;41907;47.848;9.000;2023-01-19T12:30:01;8.48;;;5.00;;
56037;SDS011;41907;47.848;9.000;2023-01-19T12:32:31;11.13;;;5.50;;
56037;SDS011;41907;47.848;9.000;2023-01-19T12:34:58;12.75;;;6.85;;
56037;SDS011;41907;47.848;9.000;2023-01-19T12:39:55;9.85;;;5.68;;
56037;SDS011;41907;47.848;9.000;2023-01-19T12:42:24;10.65;;;5.63;;
56037;SDS011;41907;47.848;9.000;2023-01-19T12:45:12;10.40;;;5.20;;
56037;SDS011;41907;47.848;9.000;2023-01-19T12:47:53;9.48;;;5.80;;
56037;SDS011;41907;47.848;9.000;2023-01-19T12:50:19;7.88;;;4.65;;
56037;SDS011;41907;47.848;9.000;2023-01-19T12:58:05;8.60;;;5.63;;
56037;SDS011;41907;47.848;9.000;2023-01-19T13:00:38;8.77;;;4.60;;
56037;SDS011;41907;47.848;9.000;2023-01-19T13:13:21;9.50;;;6.40;;
56037;SDS011;41907;47.848;9.000;2023-01-19T13:15:50;9.68;;;6.07;;
56037;SDS011;41907;47.848;9.000;2023-01-19T13:18:17;10.50;;;6.75;;
56037;SDS011;41907;47.848;9.000;2023-01-19T13:20:46;11.30;;;5.80;;
56037;SDS011;41907;47.848;9.000;2023-01-19T13:25:58;9.50;;;4.53;;
56037;SDS011;41907;47.848;9.000;2023-01-19T13:28:37;8.82;;;4.45;;
56037;SDS011;41907;47.848;9.000;2023-01-19T13:31:06;7.07;;;3.40;;
56037;SDS011;41907;47.848;9.000;2023-01-19T13:33:42;8.15;;;3.90;;
56037;SDS011;41907;47.848;9.000;2023-01-19T13:36:14;5.82;;;3.80;;
56037;SDS011;41907;47.848;9.000;2023-01-19T13:38:44;8.18;;;3.88;;
56037;SDS011;41907;47.848;9.000;2023-01-19T13:41:13;8.60;;;4.40;;
56037;SDS011;41907;47.848;9.000;2023-01-19T13:43:40;9.38;;;5.10;;
56037;SDS011;41907;47.848;9.000;2023-01-19T13:46:08;7.88;;;4.00;;
56037;SDS011;41907;47.848;9.000;2023-01-19T13:48:35;16.63;;;7.47;;
56037;SDS011;41907;47.848;9.000;2023-01-19T13:51:05;21.13;;;9.95;;
56037;SDS011;41907;47.848;9.000;2023-01-19T13:53:32;11.65;;;6.40;;
56037;SDS011;41907;47.848;9.000;2023-01-19T13:56:18;7.05;;;3.75;;
56037;SDS011;41907;47.848;9.000;2023-01-19T14:01:24;9.10;;;4.70;;
56037;SDS011;41907;47.848;9.000;2023-01-19T14:03:50;6.10;;;3.67;;
56037;SDS011;41907;47.848;9.000;2023-01-19T14:06:59;5.97;;;3.40;;
56037;SDS011;41907;47.848;9.000;2023-01-19T14:09:18;6.82;;;3.90;;
56037;SDS011;41907;47.848;9.000;2023-01-19T14:11:45;10.52;;;5.82;;
56037;SDS011;41907;47.848;9.000;2023-01-19T14:14:31;8.05;;;4.25;;
56037;SDS011;41907;47.848;9.000;2023-01-19T14:16:57;7.78;;;4.03;;
56037;SDS011;41907;47.848;9.000;2023-01-19T14:19:23;20.38;;;9.32;;
56037;SDS011;41907;47.848;9.000;2023-01-19T14:21:59;7.72;;;4.28;;
56037;SDS011;41907;47.848;9.000;2023-01-19T14:24:26;6.70;;;4.03;;
56037;SDS011;41907;47.848;9.000;2023-01-19T14:27:09;7.20;;;3.97;;
56037;SDS011;41907;47.848;9.000;2023-01-19T14:29:43;31.95;;;10.45;;
56037;SDS011;41907;47.848;9.000;2023-01-19T14:32:12;16.63;;;6.82;;
56037;SDS011;41907;47.848;9.000;2023-01-19T14:42:21;10.48;;;5.10;;
56037;SDS011;41907;47.848;9.000;2023-01-19T14:44:50;7.53;;;3.78;;
56037;SDS011;41907;47.848;9.000;2023-01-19T14:47:31;7.53;;;3.92;;
56037;SDS011;41907;47.848;9.000;2023-01-19T14:50:17;7.18;;;3.38;;
56037;SDS011;41907;47.848;9.000;2023-01-19T14:52:50;5.10;;;4.07;;
56037;SDS011;41907;47.848;9.000;2023-01-19T14:55:21;4.68;;;3.28;;
56037;SDS011;41907;47.848;9.000;2023-01-19T14:57:50;5.43;;;3.03;;
56037;SDS011;41907;47.848;9.000;2023-01-19T15:00:19;4.88;;;2.97;;
56037;SDS011;41907;47.848;9.000;2023-01-19T15:02:45;6.07;;;2.80;;
56037;SDS011;41907;47.848;9.000;2023-01-19T15:05:11;5.15;;;2.80;;
56037;SDS011;41907;47.848;9.000;2023-01-19T15:07:38;4.57;;;3.10;;
56037;SDS011;41907;47.848;9.000;2023-01-19T15:10:08;5.05;;;3.03;;
56037;SDS011;41907;47.848;9.000;2023-01-19T15:12:39;6.53;;;3.08;;
56037;SDS011;41907;47.848;9.000;2023-01-19T15:15:07;4.05;;;2.95;;
56037;SDS011;41907;47.848;9.000;2023-01-19T15:17:41;5.75;;;3.30;;
56037;SDS011;41907;47.848;9.000;2023-01-19T15:20:13;4.65;;;2.90;;
56037;SDS011;41907;47.848;9.000;2023-01-19T15:22:42;14.40;;;6.82;;
56037;SDS011;41907;47.848;9.000;2023-01-19T15:25:08;9.95;;;5.18;;
56037;SDS011;41907;47.848;9.000;2023-01-19T15:27:36;10.30;;;5.00;;
56037;SDS011;41907;47.848;9.000;2023-01-19T15:30:01;6.47;;;3.15;;
56037;SDS011;41907;47.848;9.000;2023-01-19T15:32:27;8.50;;;3.65;;
56037;SDS011;41907;47.848;9.000;2023-01-19T15:34:52;4.90;;;3.10;;
56037;SDS011;41907;47.848;9.000;2023-01-19T15:37:18;4.13;;;2.97;;
56037;SDS011;41907;47.848;9.000;2023-01-19T15:39:43;7.10;;;3.03;;
56037;SDS011;41907;47.848;9.000;2023-01-19T15:42:14;4.80;;;3.22;;
56037;SDS011;41907;47.848;9.000;2023-01-19T15:44:40;6.18;;;3.17;;
56037;SDS011;41907;47.848;9.000;2023-01-19T15:47:05;6.97;;;4.28;;
56037;SDS011;41907;47.848;9.000;2023-01-19T15:49:30;14.48;;;5.93;;
56037;SDS011;41907;47.848;9.000;2023-01-19T15:51:56;32.47;;;13.77;;
56037;SDS011;41907;47.848;9.000;2023-01-19T15:54:21;17.58;;;9.02;;
56037;SDS011;41907;47.848;9.000;2023-01-19T15:56:46;11.90;;;6.20;;
56037;SDS011;41907;47.848;9.000;2023-01-19T15:59:12;8.52;;;4.45;;
56037;SDS011;41907;47.848;9.000;2023-01-19T16:01:37;10.82;;;5.63;;
56037;SDS011;41907;47.848;9.000;2023-01-19T16:04:05;15.57;;;8.25;;